sensor_id;sensor_type;location;lat;lon;timestamp;temperature;humidity
75363;DHT22;64122;51.988;5.892;2023-06-04T00:00:56;15.23;49.23
75363;DHT22;64122;51.988;5.892;2023-06-04T00:03:25;15.18;49.34
75363;DHT22;64122;51.988;5.892;2023-06-04T00:05:55;15.15;49.37
75363;DHT22;64122;51.988;5.892;2023-06-04T00:08:24;15.11;49.39
75363;DHT22;64122;51.988;5.892;2023-06-04T00:10:53;15.11;49.34
75363;DHT22;64122;51.988;5.892;2023-06-04T00:13:25;15.06;49.47
75363;DHT22;64122;51.988;5.892;2023-06-04T00:15:55;15.03;49.43
75363;DHT22;64122;51.988;5.892;2023-06-04T00:18:24;15.06;49.31
75363;DHT22;64122;51.988;5.892;2023-06-04T00:20:53;15.06;49.24
75363;DHT22;64122;51.988;5.892;2023-06-04T00:23:22;15.01;49.25
75363;DHT22;64122;51.988;5.892;2023-06-04T00:25:52;14.95;49.36
75363;DHT22;64122;51.988;5.892;2023-06-04T00:28:21;14.91;49.42
75363;DHT22;64122;51.988;5.892;2023-06-04T00:30:53;14.89;49.33
75363;DHT22;64122;51.988;5.892;2023-06-04T00:33:23;14.85;49.52
75363;DHT22;64122;51.988;5.892;2023-06-04T00:35:52;14.85;49.37
75363;DHT22;64122;51.988;5.892;2023-06-04T00:38:21;14.81;49.49
75363;DHT22;64122;51.988;5.892;2023-06-04T00:40:50;14.78;49.47
75363;DHT22;64122;51.988;5.892;2023-06-04T00:43:20;14.73;49.62
75363;DHT22;64122;51.988;5.892;2023-06-04T00:45:54;14.68;49.74
75363;DHT22;64122;51.988;5.892;2023-06-04T00:48:23;14.66;49.69
75363;DHT22;64122;51.988;5.892;2023-06-04T00:50:54;14.66;49.69
75363;DHT22;64122;51.988;5.892;2023-06-04T00:53:24;14.60;49.76
75363;DHT22;64122;51.988;5.892;2023-06-04T00:55:54;14.55;49.85
75363;DHT22;64122;51.988;5.892;2023-06-04T00:58:23;14.53;49.82
75363;DHT22;64122;51.988;5.892;2023-06-04T01:00:56;14.43;50.02
75363;DHT22;64122;51.988;5.892;2023-06-04T01:03:32;14.39;50.02
75363;DHT22;64122;51.988;5.892;2023-06-04T01:06:07;14.37;49.99
75363;DHT22;64122;51.988;5.892;2023-06-04T01:08:40;14.33;50.08
75363;DHT22;64122;51.988;5.892;2023-06-04T01:11:11;14.27;50.22
75363;DHT22;64122;51.988;5.892;2023-06-04T01:13:40;14.28;50.12
75363;DHT22;64122;51.988;5.892;2023-06-04T01:16:14;14.26;50.02
75363;DHT22;64122;51.988;5.892;2023-06-04T01:18:45;14.25;50.17
75363;DHT22;64122;51.988;5.892;2023-06-04T01:21:16;14.20;50.23
75363;DHT22;64122;51.988;5.892;2023-06-04T01:23:49;14.14;50.27
75363;DHT22;64122;51.988;5.892;2023-06-04T01:26:25;14.13;50.30
75363;DHT22;64122;51.988;5.892;2023-06-04T01:28:55;14.10;50.31
75363;DHT22;64122;51.988;5.892;2023-06-04T01:31:28;14.09;50.17
75363;DHT22;64122;51.988;5.892;2023-06-04T01:33:59;14.10;50.29
75363;DHT22;64122;51.988;5.892;2023-06-04T01:36:28;14.08;50.08
75363;DHT22;64122;51.988;5.892;2023-06-04T01:38:58;14.04;50.13
75363;DHT22;64122;51.988;5.892;2023-06-04T01:41:28;14.05;50.06
75363;DHT22;64122;51.988;5.892;2023-06-04T01:43:57;14.04;50.11
75363;DHT22;64122;51.988;5.892;2023-06-04T01:46:30;14.00;50.09
75363;DHT22;64122;51.988;5.892;2023-06-04T01:48:59;13.99;50.16
75363;DHT22;64122;51.988;5.892;2023-06-04T01:51:28;13.99;50.11
75363;DHT22;64122;51.988;5.892;2023-06-04T01:53:58;13.97;50.09
75363;DHT22;64122;51.988;5.892;2023-06-04T01:56:28;13.98;50.02
75363;DHT22;64122;51.988;5.892;2023-06-04T01:58:57;13.96;50.02
75363;DHT22;64122;51.988;5.892;2023-06-04T02:01:30;13.92;50.05
75363;DHT22;64122;51.988;5.892;2023-06-04T02:04:00;13.92;50.11
75363;DHT22;64122;51.988;5.892;2023-06-04T02:06:29;13.91;50.13
75363;DHT22;64122;51.988;5.892;2023-06-04T02:08:59;13.89;50.16
75363;DHT22;64122;51.988;5.892;2023-06-04T02:11:30;13.86;50.18
75363;DHT22;64122;51.988;5.892;2023-06-04T02:13:59;13.88;50.14
75363;DHT22;64122;51.988;5.892;2023-06-04T02:16:31;13.88;50.09
75363;DHT22;64122;51.988;5.892;2023-06-04T02:19:01;13.86;50.13
75363;DHT22;64122;51.988;5.892;2023-06-04T02:21:31;13.81;50.43
75363;DHT22;64122;51.988;5.892;2023-06-04T02:24:01;13.79;50.47
75363;DHT22;64122;51.988;5.892;2023-06-04T02:26:31;13.74;50.61
75363;DHT22;64122;51.988;5.892;2023-06-04T02:29:00;13.70;50.70
75363;DHT22;64122;51.988;5.892;2023-06-04T02:31:32;13.65;50.83
75363;DHT22;64122;51.988;5.892;2023-06-04T02:34:02;13.68;50.69
75363;DHT22;64122;51.988;5.892;2023-06-04T02:36:32;13.64;50.83
75363;DHT22;64122;51.988;5.892;2023-06-04T02:39:01;13.63;50.88
75363;DHT22;64122;51.988;5.892;2023-06-04T02:41:30;13.60;51.06
75363;DHT22;64122;51.988;5.892;2023-06-04T02:44:00;13.58;51.09
75363;DHT22;64122;51.988;5.892;2023-06-04T02:46:32;13.55;51.11
75363;DHT22;64122;51.988;5.892;2023-06-04T02:49:01;13.52;51.30
75363;DHT22;64122;51.988;5.892;2023-06-04T02:51:31;13.50;51.32
75363;DHT22;64122;51.988;5.892;2023-06-04T02:54:00;13.47;51.46
75363;DHT22;64122;51.988;5.892;2023-06-04T02:56:30;13.39;51.75
75363;DHT22;64122;51.988;5.892;2023-06-04T02:58:59;13.38;51.70
75363;DHT22;64122;51.988;5.892;2023-06-04T03:01:28;13.34;51.94
75363;DHT22;64122;51.988;5.892;2023-06-04T03:04:00;13.33;51.90
75363;DHT22;64122;51.988;5.892;2023-06-04T03:06:31;13.30;52.11
75363;DHT22;64122;51.988;5.892;2023-06-04T03:09:00;13.24;52.42
75363;DHT22;64122;51.988;5.892;2023-06-04T03:11:30;13.24;52.37
75363;DHT22;64122;51.988;5.892;2023-06-04T03:13:59;13.24;52.40
75363;DHT22;64122;51.988;5.892;2023-06-04T03:16:29;13.21;52.69
75363;DHT22;64122;51.988;5.892;2023-06-04T03:19:02;13.20;52.56
75363;DHT22;64122;51.988;5.892;2023-06-04T03:21:31;13.20;52.71
75363;DHT22;64122;51.988;5.892;2023-06-04T03:24:01;13.18;52.82
75363;DHT22;64122;51.988;5.892;2023-06-04T03:26:30;13.18;52.93
75363;DHT22;64122;51.988;5.892;2023-06-04T03:29:00;13.18;52.96
75363;DHT22;64122;51.988;5.892;2023-06-04T03:31:29;13.15;53.19
75363;DHT22;64122;51.988;5.892;2023-06-04T03:34:01;13.11;53.21
75363;DHT22;64122;51.988;5.892;2023-06-04T03:36:31;13.08;53.48
75363;DHT22;64122;51.988;5.892;2023-06-04T03:39:06;13.07;53.47
75363;DHT22;64122;51.988;5.892;2023-06-04T03:41:36;13.06;53.64
75363;DHT22;64122;51.988;5.892;2023-06-04T03:44:06;13.06;53.62
75363;DHT22;64122;51.988;5.892;2023-06-04T03:46:35;13.07;53.65
75363;DHT22;64122;51.988;5.892;2023-06-04T03:49:08;13.05;53.77
75363;DHT22;64122;51.988;5.892;2023-06-04T03:51:38;13.03;53.86
75363;DHT22;64122;51.988;5.892;2023-06-04T03:54:14;13.04;53.81
75363;DHT22;64122;51.988;5.892;2023-06-04T03:56:47;13.07;53.76
75363;DHT22;64122;51.988;5.892;2023-06-04T03:59:16;13.04;54.09
75363;DHT22;64122;51.988;5.892;2023-06-04T04:01:47;13.04;54.21
75363;DHT22;64122;51.988;5.892;2023-06-04T04:04:19;13.06;54.12
75363;DHT22;64122;51.988;5.892;2023-06-04T04:06:48;13.08;54.13
75363;DHT22;64122;51.988;5.892;2023-06-04T04:09:18;13.11;53.99
75363;DHT22;64122;51.988;5.892;2023-06-04T04:11:47;13.12;54.08
75363;DHT22;64122;51.988;5.892;2023-06-04T04:14:17;13.08;54.38
75363;DHT22;64122;51.988;5.892;2023-06-04T04:16:47;13.09;54.38
75363;DHT22;64122;51.988;5.892;2023-06-04T04:19:19;13.05;54.66
75363;DHT22;64122;51.988;5.892;2023-06-04T04:21:48;13.08;54.69
75363;DHT22;64122;51.988;5.892;2023-06-04T04:24:23;13.09;54.60
75363;DHT22;64122;51.988;5.892;2023-06-04T04:26:55;13.10;54.77
75363;DHT22;64122;51.988;5.892;2023-06-04T04:29:26;13.12;54.91
75363;DHT22;64122;51.988;5.892;2023-06-04T04:32:00;13.15;54.87
75363;DHT22;64122;51.988;5.892;2023-06-04T04:34:50;13.15;54.86
75363;DHT22;64122;51.988;5.892;2023-06-04T04:37:26;13.20;54.96
75363;DHT22;64122;51.988;5.892;2023-06-04T04:39:57;13.23;55.00
75363;DHT22;64122;51.988;5.892;2023-06-04T04:42:30;13.26;55.09
75363;DHT22;64122;51.988;5.892;2023-06-04T04:45:01;13.32;55.04
75363;DHT22;64122;51.988;5.892;2023-06-04T04:47:31;13.32;55.24
75363;DHT22;64122;51.988;5.892;2023-06-04T04:50:04;13.35;55.17
75363;DHT22;64122;51.988;5.892;2023-06-04T04:52:33;13.44;55.06
75363;DHT22;64122;51.988;5.892;2023-06-04T04:55:04;13.48;54.94
75363;DHT22;64122;51.988;5.892;2023-06-04T04:57:34;13.54;54.91
75363;DHT22;64122;51.988;5.892;2023-06-04T05:00:05;13.58;54.94
75363;DHT22;64122;51.988;5.892;2023-06-04T05:02:37;13.63;54.80
75363;DHT22;64122;51.988;5.892;2023-06-04T05:05:12;13.67;54.69
75363;DHT22;64122;51.988;5.892;2023-06-04T05:07:43;13.74;54.55
75363;DHT22;64122;51.988;5.892;2023-06-04T05:10:13;13.80;54.55
75363;DHT22;64122;51.988;5.892;2023-06-04T05:12:51;13.88;54.28
75363;DHT22;64122;51.988;5.892;2023-06-04T05:15:23;13.84;54.24
75363;DHT22;64122;51.988;5.892;2023-06-04T05:17:55;13.91;54.39
75363;DHT22;64122;51.988;5.892;2023-06-04T05:20:32;13.96;54.33
75363;DHT22;64122;51.988;5.892;2023-06-04T05:23:04;14.01;54.24
75363;DHT22;64122;51.988;5.892;2023-06-04T05:25:34;14.07;54.27
75363;DHT22;64122;51.988;5.892;2023-06-04T05:28:04;14.10;54.27
75363;DHT22;64122;51.988;5.892;2023-06-04T05:30:35;14.17;54.23
75363;DHT22;64122;51.988;5.892;2023-06-04T05:33:09;14.23;54.09
75363;DHT22;64122;51.988;5.892;2023-06-04T05:35:50;14.32;54.04
75363;DHT22;64122;51.988;5.892;2023-06-04T05:38:20;14.45;53.54
75363;DHT22;64122;51.988;5.892;2023-06-04T05:40:53;14.47;53.50
75363;DHT22;64122;51.988;5.892;2023-06-04T05:43:24;14.56;53.31
75363;DHT22;64122;51.988;5.892;2023-06-04T05:45:54;14.65;53.12
75363;DHT22;64122;51.988;5.892;2023-06-04T05:48:23;14.74;52.96
75363;DHT22;64122;51.988;5.892;2023-06-04T05:50:55;14.78;52.79
75363;DHT22;64122;51.988;5.892;2023-06-04T05:53:25;14.88;52.65
75363;DHT22;64122;51.988;5.892;2023-06-04T05:55:54;14.94;52.49
75363;DHT22;64122;51.988;5.892;2023-06-04T05:58:24;15.01;52.48
75363;DHT22;64122;51.988;5.892;2023-06-04T06:00:53;15.04;52.41
75363;DHT22;64122;51.988;5.892;2023-06-04T06:03:23;15.17;52.14
75363;DHT22;64122;51.988;5.892;2023-06-04T06:05:57;15.27;51.71
75363;DHT22;64122;51.988;5.892;2023-06-04T06:08:27;15.38;51.46
75363;DHT22;64122;51.988;5.892;2023-06-04T06:10:56;15.49;51.33
75363;DHT22;64122;51.988;5.892;2023-06-04T06:13:26;15.61;51.06
75363;DHT22;64122;51.988;5.892;2023-06-04T06:15:56;15.70;50.72
75363;DHT22;64122;51.988;5.892;2023-06-04T06:18:26;15.78;50.38
75363;DHT22;64122;51.988;5.892;2023-06-04T06:20:58;15.92;50.12
75363;DHT22;64122;51.988;5.892;2023-06-04T06:23:28;16.00;50.24
75363;DHT22;64122;51.988;5.892;2023-06-04T06:25:58;16.15;49.45
75363;DHT22;64122;51.988;5.892;2023-06-04T06:28:30;16.24;49.43
75363;DHT22;64122;51.988;5.892;2023-06-04T06:31:00;16.36;49.17
75363;DHT22;64122;51.988;5.892;2023-06-04T06:33:29;16.47;48.89
75363;DHT22;64122;51.988;5.892;2023-06-04T06:36:01;16.54;48.31
75363;DHT22;64122;51.988;5.892;2023-06-04T06:38:31;16.67;47.97
75363;DHT22;64122;51.988;5.892;2023-06-04T06:41:00;16.78;47.52
75363;DHT22;64122;51.988;5.892;2023-06-04T06:43:29;16.88;47.28
75363;DHT22;64122;51.988;5.892;2023-06-04T06:45:59;17.01;47.02
75363;DHT22;64122;51.988;5.892;2023-06-04T06:48:28;17.14;47.06
75363;DHT22;64122;51.988;5.892;2023-06-04T06:51:00;17.33;46.54
75363;DHT22;64122;51.988;5.892;2023-06-04T06:53:30;17.52;45.87
75363;DHT22;64122;51.988;5.892;2023-06-04T06:55:59;17.68;45.67
75363;DHT22;64122;51.988;5.892;2023-06-04T06:58:28;17.68;44.99
75363;DHT22;64122;51.988;5.892;2023-06-04T07:00:58;17.74;44.96
75363;DHT22;64122;51.988;5.892;2023-06-04T07:03:27;17.87;44.95
75363;DHT22;64122;51.988;5.892;2023-06-04T07:05:57;17.98;44.29
75363;DHT22;64122;51.988;5.892;2023-06-04T07:08:29;18.13;43.51
75363;DHT22;64122;51.988;5.892;2023-06-04T07:10:59;18.40;43.00
75363;DHT22;64122;51.988;5.892;2023-06-04T07:13:28;18.56;42.89
75363;DHT22;64122;51.988;5.892;2023-06-04T07:15:58;18.71;42.47
75363;DHT22;64122;51.988;5.892;2023-06-04T07:18:27;18.84;42.16
75363;DHT22;64122;51.988;5.892;2023-06-04T07:20:57;19.02;42.04
75363;DHT22;64122;51.988;5.892;2023-06-04T07:23:29;19.27;41.38
75363;DHT22;64122;51.988;5.892;2023-06-04T07:25:58;19.53;40.80
75363;DHT22;64122;51.988;5.892;2023-06-04T07:28:28;19.68;40.62
75363;DHT22;64122;51.988;5.892;2023-06-04T07:30:57;19.96;40.28
75363;DHT22;64122;51.988;5.892;2023-06-04T07:33:27;20.18;39.52
75363;DHT22;64122;51.988;5.892;2023-06-04T07:35:56;20.46;38.77
75363;DHT22;64122;51.988;5.892;2023-06-04T07:38:28;20.58;38.09
75363;DHT22;64122;51.988;5.892;2023-06-04T07:40:57;20.76;38.81
75363;DHT22;64122;51.988;5.892;2023-06-04T07:43:27;21.50;36.53
75363;DHT22;64122;51.988;5.892;2023-06-04T07:45:56;22.28;35.15
75363;DHT22;64122;51.988;5.892;2023-06-04T07:48:25;22.72;34.15
75363;DHT22;64122;51.988;5.892;2023-06-04T07:50:57;24.40;30.93
75363;DHT22;64122;51.988;5.892;2023-06-04T07:53:29;26.73;27.62
75363;DHT22;64122;51.988;5.892;2023-06-04T07:55:58;28.41;24.59
75363;DHT22;64122;51.988;5.892;2023-06-04T07:58:28;29.56;22.95
75363;DHT22;64122;51.988;5.892;2023-06-04T08:00:57;30.72;21.66
75363;DHT22;64122;51.988;5.892;2023-06-04T08:03:26;31.27;20.38
75363;DHT22;64122;51.988;5.892;2023-06-04T08:05:56;31.46;20.46
75363;DHT22;64122;51.988;5.892;2023-06-04T08:08:25;31.92;19.79
75363;DHT22;64122;51.988;5.892;2023-06-04T08:10:57;32.29;19.28
75363;DHT22;64122;51.988;5.892;2023-06-04T08:13:26;32.71;19.70
75363;DHT22;64122;51.988;5.892;2023-06-04T08:15:55;33.13;17.82
75363;DHT22;64122;51.988;5.892;2023-06-04T08:18:25;33.01;17.21
75363;DHT22;64122;51.988;5.892;2023-06-04T08:20:54;32.90;16.97
75363;DHT22;64122;51.988;5.892;2023-06-04T08:23:24;32.91;17.10
75363;DHT22;64122;51.988;5.892;2023-06-04T08:25:53;32.94;16.91
75363;DHT22;64122;51.988;5.892;2023-06-04T08:28:25;33.04;16.72
75363;DHT22;64122;51.988;5.892;2023-06-04T08:30:54;33.33;16.11
75363;DHT22;64122;51.988;5.892;2023-06-04T08:33:24;33.40;15.56
75363;DHT22;64122;51.988;5.892;2023-06-04T08:35:53;33.41;15.93
75363;DHT22;64122;51.988;5.892;2023-06-04T08:38:23;33.75;15.55
75363;DHT22;64122;51.988;5.892;2023-06-04T08:40:53;34.10;15.47
75363;DHT22;64122;51.988;5.892;2023-06-04T08:43:28;34.20;15.02
75363;DHT22;64122;51.988;5.892;2023-06-04T08:45:59;34.48;14.93
75363;DHT22;64122;51.988;5.892;2023-06-04T08:48:33;34.40;14.45
75363;DHT22;64122;51.988;5.892;2023-06-04T08:51:02;34.12;15.01
75363;DHT22;64122;51.988;5.892;2023-06-04T08:53:35;34.10;15.11
75363;DHT22;64122;51.988;5.892;2023-06-04T08:56:05;34.05;14.39
75363;DHT22;64122;51.988;5.892;2023-06-04T08:58:40;34.11;14.95
75363;DHT22;64122;51.988;5.892;2023-06-04T09:01:10;34.47;14.48
75363;DHT22;64122;51.988;5.892;2023-06-04T09:03:40;34.30;13.97
75363;DHT22;64122;51.988;5.892;2023-06-04T09:06:10;33.99;14.00
75363;DHT22;64122;51.988;5.892;2023-06-04T09:08:43;33.79;13.91
75363;DHT22;64122;51.988;5.892;2023-06-04T09:11:14;33.95;13.71
75363;DHT22;64122;51.988;5.892;2023-06-04T09:13:47;34.06;13.63
75363;DHT22;64122;51.988;5.892;2023-06-04T09:16:17;33.81;13.42
75363;DHT22;64122;51.988;5.892;2023-06-04T09:18:47;33.78;13.23
75363;DHT22;64122;51.988;5.892;2023-06-04T09:21:17;33.87;13.51
75363;DHT22;64122;51.988;5.892;2023-06-04T09:23:47;34.00;14.20
75363;DHT22;64122;51.988;5.892;2023-06-04T09:26:19;33.95;14.48
75363;DHT22;64122;51.988;5.892;2023-06-04T09:28:55;34.07;13.57
75363;DHT22;64122;51.988;5.892;2023-06-04T09:31:25;34.08;12.59
75363;DHT22;64122;51.988;5.892;2023-06-04T09:33:58;33.77;12.98
75363;DHT22;64122;51.988;5.892;2023-06-04T09:36:30;33.60;13.62
75363;DHT22;64122;51.988;5.892;2023-06-04T09:39:00;33.68;13.65
75363;DHT22;64122;51.988;5.892;2023-06-04T09:41:30;33.72;13.82
75363;DHT22;64122;51.988;5.892;2023-06-04T09:44:02;33.34;13.62
75363;DHT22;64122;51.988;5.892;2023-06-04T09:46:32;33.15;13.26
75363;DHT22;64122;51.988;5.892;2023-06-04T09:49:03;33.20;13.27
75363;DHT22;64122;51.988;5.892;2023-06-04T09:51:34;32.98;13.29
75363;DHT22;64122;51.988;5.892;2023-06-04T09:54:03;32.62;13.50
75363;DHT22;64122;51.988;5.892;2023-06-04T09:56:43;32.33;14.55
75363;DHT22;64122;51.988;5.892;2023-06-04T09:59:16;32.18;14.36
75363;DHT22;64122;51.988;5.892;2023-06-04T10:01:46;31.96;14.70
75363;DHT22;64122;51.988;5.892;2023-06-04T10:04:16;31.73;14.37
75363;DHT22;64122;51.988;5.892;2023-06-04T10:06:46;31.46;14.71
75363;DHT22;64122;51.988;5.892;2023-06-04T10:09:16;30.84;14.68
75363;DHT22;64122;51.988;5.892;2023-06-04T10:11:51;30.42;15.18
75363;DHT22;64122;51.988;5.892;2023-06-04T10:14:29;30.20;15.68
75363;DHT22;64122;51.988;5.892;2023-06-04T10:17:01;30.00;16.21
75363;DHT22;64122;51.988;5.892;2023-06-04T10:19:33;29.65;16.65
75363;DHT22;64122;51.988;5.892;2023-06-04T10:22:04;29.31;17.34
75363;DHT22;64122;51.988;5.892;2023-06-04T10:24:33;29.17;17.96
75363;DHT22;64122;51.988;5.892;2023-06-04T10:27:03;28.86;17.74
75363;DHT22;64122;51.988;5.892;2023-06-04T10:29:39;28.54;18.10
75363;DHT22;64122;51.988;5.892;2023-06-04T10:32:12;28.09;19.00
75363;DHT22;64122;51.988;5.892;2023-06-04T10:34:41;27.79;19.38
75363;DHT22;64122;51.988;5.892;2023-06-04T10:37:19;27.29;20.12
75363;DHT22;64122;51.988;5.892;2023-06-04T10:39:51;27.10;20.53
75363;DHT22;64122;51.988;5.892;2023-06-04T10:42:22;26.86;20.41
75363;DHT22;64122;51.988;5.892;2023-06-04T10:44:55;26.73;20.81
75363;DHT22;64122;51.988;5.892;2023-06-04T10:47:25;26.77;20.96
75363;DHT22;64122;51.988;5.892;2023-06-04T10:50:07;26.78;21.24
75363;DHT22;64122;51.988;5.892;2023-06-04T10:52:37;26.86;21.32
75363;DHT22;64122;51.988;5.892;2023-06-04T10:55:07;26.87;21.24
75363;DHT22;64122;51.988;5.892;2023-06-04T10:57:37;26.83;20.94
75363;DHT22;64122;51.988;5.892;2023-06-04T11:00:11;26.92;20.86
75363;DHT22;64122;51.988;5.892;2023-06-04T11:02:50;26.81;20.70
75363;DHT22;64122;51.988;5.892;2023-06-04T11:05:20;26.69;20.65
75363;DHT22;64122;51.988;5.892;2023-06-04T11:07:49;26.70;20.46
75363;DHT22;64122;51.988;5.892;2023-06-04T11:10:31;26.83;20.25
75363;DHT22;64122;51.988;5.892;2023-06-04T11:13:03;26.89;20.10
75363;DHT22;64122;51.988;5.892;2023-06-04T11:15:42;26.83;20.46
75363;DHT22;64122;51.988;5.892;2023-06-04T11:18:16;26.86;20.86
75363;DHT22;64122;51.988;5.892;2023-06-04T11:20:47;26.82;20.44
75363;DHT22;64122;51.988;5.892;2023-06-04T11:23:16;26.76;20.46
75363;DHT22;64122;51.988;5.892;2023-06-04T11:25:46;26.82;21.07
75363;DHT22;64122;51.988;5.892;2023-06-04T11:28:21;26.82;20.79
75363;DHT22;64122;51.988;5.892;2023-06-04T11:31:00;26.76;20.76
75363;DHT22;64122;51.988;5.892;2023-06-04T11:33:42;26.60;20.81
75363;DHT22;64122;51.988;5.892;2023-06-04T11:36:22;26.61;20.70
75363;DHT22;64122;51.988;5.892;2023-06-04T11:38:59;26.71;20.70
75363;DHT22;64122;51.988;5.892;2023-06-04T11:41:30;26.65;20.85
75363;DHT22;64122;51.988;5.892;2023-06-04T11:44:02;26.54;21.29
75363;DHT22;64122;51.988;5.892;2023-06-04T11:46:35;26.54;21.58
75363;DHT22;64122;51.988;5.892;2023-06-04T11:49:04;26.51;21.62
75363;DHT22;64122;51.988;5.892;2023-06-04T11:51:35;26.50;21.44
75363;DHT22;64122;51.988;5.892;2023-06-04T11:54:05;26.31;21.18
75363;DHT22;64122;51.988;5.892;2023-06-04T11:56:34;26.22;21.58
75363;DHT22;64122;51.988;5.892;2023-06-04T11:59:04;26.11;21.48
75363;DHT22;64122;51.988;5.892;2023-06-04T12:01:39;26.05;21.49
75363;DHT22;64122;51.988;5.892;2023-06-04T12:04:12;26.09;21.33
75363;DHT22;64122;51.988;5.892;2023-06-04T12:06:51;26.26;21.34
75363;DHT22;64122;51.988;5.892;2023-06-04T12:09:23;26.37;21.47
75363;DHT22;64122;51.988;5.892;2023-06-04T12:12:00;26.41;21.09
75363;DHT22;64122;51.988;5.892;2023-06-04T12:14:30;26.24;21.21
75363;DHT22;64122;51.988;5.892;2023-06-04T12:17:06;26.27;21.31
75363;DHT22;64122;51.988;5.892;2023-06-04T12:19:46;26.37;21.36
75363;DHT22;64122;51.988;5.892;2023-06-04T12:22:17;26.45;21.39
75363;DHT22;64122;51.988;5.892;2023-06-04T12:24:48;26.58;21.26
75363;DHT22;64122;51.988;5.892;2023-06-04T12:27:20;26.77;21.31
75363;DHT22;64122;51.988;5.892;2023-06-04T12:30:00;26.87;21.10
75363;DHT22;64122;51.988;5.892;2023-06-04T12:32:34;26.77;21.03
75363;DHT22;64122;51.988;5.892;2023-06-04T12:35:08;26.76;21.44
75363;DHT22;64122;51.988;5.892;2023-06-04T12:37:38;26.76;21.20
75363;DHT22;64122;51.988;5.892;2023-06-04T12:40:10;26.54;21.07
75363;DHT22;64122;51.988;5.892;2023-06-04T12:42:40;26.40;21.57
75363;DHT22;64122;51.988;5.892;2023-06-04T12:45:10;26.34;21.48
75363;DHT22;64122;51.988;5.892;2023-06-04T12:47:44;26.25;21.36
75363;DHT22;64122;51.988;5.892;2023-06-04T12:50:13;26.22;21.47
75363;DHT22;64122;51.988;5.892;2023-06-04T12:52:44;26.22;21.72
75363;DHT22;64122;51.988;5.892;2023-06-04T12:55:16;26.30;21.73
75363;DHT22;64122;51.988;5.892;2023-06-04T12:57:46;26.32;22.26
75363;DHT22;64122;51.988;5.892;2023-06-04T13:00:16;26.30;22.34
75363;DHT22;64122;51.988;5.892;2023-06-04T13:02:48;26.15;22.10
75363;DHT22;64122;51.988;5.892;2023-06-04T13:05:18;26.06;22.12
75363;DHT22;64122;51.988;5.892;2023-06-04T13:07:47;25.98;21.78
75363;DHT22;64122;51.988;5.892;2023-06-04T13:10:16;26.06;22.05
75363;DHT22;64122;51.988;5.892;2023-06-04T13:12:46;26.16;22.11
75363;DHT22;64122;51.988;5.892;2023-06-04T13:15:16;26.31;22.30
75363;DHT22;64122;51.988;5.892;2023-06-04T13:17:48;26.41;22.38
75363;DHT22;64122;51.988;5.892;2023-06-04T13:20:18;26.43;21.89
75363;DHT22;64122;51.988;5.892;2023-06-04T13:22:47;26.46;22.14
75363;DHT22;64122;51.988;5.892;2023-06-04T13:25:16;26.36;22.09
75363;DHT22;64122;51.988;5.892;2023-06-04T13:27:46;26.26;22.47
75363;DHT22;64122;51.988;5.892;2023-06-04T13:30:16;26.32;22.69
75363;DHT22;64122;51.988;5.892;2023-06-04T13:32:48;26.37;22.88
75363;DHT22;64122;51.988;5.892;2023-06-04T13:35:17;26.27;22.98
75363;DHT22;64122;51.988;5.892;2023-06-04T13:37:49;26.30;23.21
75363;DHT22;64122;51.988;5.892;2023-06-04T13:40:19;26.38;22.54
75363;DHT22;64122;51.988;5.892;2023-06-04T13:42:48;26.40;22.58
75363;DHT22;64122;51.988;5.892;2023-06-04T13:45:18;26.23;22.42
75363;DHT22;64122;51.988;5.892;2023-06-04T13:47:50;26.21;22.55
75363;DHT22;64122;51.988;5.892;2023-06-04T13:50:19;26.25;22.37
75363;DHT22;64122;51.988;5.892;2023-06-04T13:52:49;26.06;22.47
75363;DHT22;64122;51.988;5.892;2023-06-04T13:55:18;26.07;22.72
75363;DHT22;64122;51.988;5.892;2023-06-04T13:57:48;26.07;22.53
75363;DHT22;64122;51.988;5.892;2023-06-04T14:00:17;26.12;22.46
75363;DHT22;64122;51.988;5.892;2023-06-04T14:02:49;26.08;22.80
75363;DHT22;64122;51.988;5.892;2023-06-04T14:05:21;26.13;22.66
75363;DHT22;64122;51.988;5.892;2023-06-04T14:07:51;26.17;22.79
75363;DHT22;64122;51.988;5.892;2023-06-04T14:10:20;26.21;22.66
75363;DHT22;64122;51.988;5.892;2023-06-04T14:12:50;26.17;22.77
75363;DHT22;64122;51.988;5.892;2023-06-04T14:15:19;26.13;23.03
75363;DHT22;64122;51.988;5.892;2023-06-04T14:17:51;26.23;23.11
75363;DHT22;64122;51.988;5.892;2023-06-04T14:20:20;26.26;22.95
75363;DHT22;64122;51.988;5.892;2023-06-04T14:22:49;26.24;22.90
75363;DHT22;64122;51.988;5.892;2023-06-04T14:25:19;26.02;23.15
75363;DHT22;64122;51.988;5.892;2023-06-04T14:27:49;25.94;23.46
75363;DHT22;64122;51.988;5.892;2023-06-04T14:30:18;25.96;23.43
75363;DHT22;64122;51.988;5.892;2023-06-04T14:32:48;25.88;23.17
75363;DHT22;64122;51.988;5.892;2023-06-04T14:35:20;25.86;23.45
75363;DHT22;64122;51.988;5.892;2023-06-04T14:37:49;25.83;23.50
75363;DHT22;64122;51.988;5.892;2023-06-04T14:40:18;25.81;23.72
75363;DHT22;64122;51.988;5.892;2023-06-04T14:42:47;25.86;23.68
75363;DHT22;64122;51.988;5.892;2023-06-04T14:45:17;25.98;23.40
75363;DHT22;64122;51.988;5.892;2023-06-04T14:47:46;26.04;23.59
75363;DHT22;64122;51.988;5.892;2023-06-04T14:50:20;26.08;23.74
75363;DHT22;64122;51.988;5.892;2023-06-04T14:52:52;25.95;23.35
75363;DHT22;64122;51.988;5.892;2023-06-04T14:55:21;25.91;23.55
75363;DHT22;64122;51.988;5.892;2023-06-04T14:57:50;25.95;23.43
75363;DHT22;64122;51.988;5.892;2023-06-04T15:00:20;25.94;23.34
75363;DHT22;64122;51.988;5.892;2023-06-04T15:02:49;25.94;23.28
75363;DHT22;64122;51.988;5.892;2023-06-04T15:05:21;25.99;23.31
75363;DHT22;64122;51.988;5.892;2023-06-04T15:07:50;25.97;23.53
75363;DHT22;64122;51.988;5.892;2023-06-04T15:10:20;26.02;23.49
75363;DHT22;64122;51.988;5.892;2023-06-04T15:12:49;26.03;23.40
75363;DHT22;64122;51.988;5.892;2023-06-04T15:15:19;25.88;23.50
75363;DHT22;64122;51.988;5.892;2023-06-04T15:17:49;25.87;23.73
75363;DHT22;64122;51.988;5.892;2023-06-04T15:20:21;25.87;23.43
75363;DHT22;64122;51.988;5.892;2023-06-04T15:22:53;25.92;23.61
75363;DHT22;64122;51.988;5.892;2023-06-04T15:25:23;25.82;23.73
75363;DHT22;64122;51.988;5.892;2023-06-04T15:27:52;25.76;23.99
75363;DHT22;64122;51.988;5.892;2023-06-04T15:30:22;25.79;24.29
75363;DHT22;64122;51.988;5.892;2023-06-04T15:32:51;25.88;23.94
75363;DHT22;64122;51.988;5.892;2023-06-04T15:35:23;25.88;24.22
75363;DHT22;64122;51.988;5.892;2023-06-04T15:37:53;25.77;24.27
75363;DHT22;64122;51.988;5.892;2023-06-04T15:40:22;25.82;24.25
75363;DHT22;64122;51.988;5.892;2023-06-04T15:42:52;25.89;24.46
75363;DHT22;64122;51.988;5.892;2023-06-04T15:45:21;25.88;24.04
75363;DHT22;64122;51.988;5.892;2023-06-04T15:47:50;25.87;24.20
75363;DHT22;64122;51.988;5.892;2023-06-04T15:50:20;25.76;24.11
75363;DHT22;64122;51.988;5.892;2023-06-04T15:52:52;25.65;24.35